sensor_id;sensor_type;location;lat;lon;timestamp;P1;durP1;ratioP1;P2;durP2;ratioP2
37349;SDS011;23231;52.358;4.926;2023-11-19T00:00:45;27.73;;;5.13;;
37349;SDS011;23231;52.358;4.926;2023-11-19T00:05:45;33.35;;;4.68;;
37349;SDS011;23231;52.358;4.926;2023-11-19T00:10:46;28.58;;;5.30;;
37349;SDS011;23231;52.358;4.926;2023-11-19T00:15:46;30.08;;;5.20;;
37349;SDS011;23231;52.358;4.926;2023-11-19T00:20:47;28.42;;;4.70;;
37349;SDS011;23231;52.358;4.926;2023-11-19T00:25:47;30.23;;;5.50;;
37349;SDS011;23231;52.358;4.926;2023-11-19T00:30:48;29.05;;;4.93;;
37349;SDS011;23231;52.358;4.926;2023-11-19T00:35:49;27.42;;;5.40;;
37349;SDS011;23231;52.358;4.926;2023-11-19T00:40:49;25.90;;;5.28;;
37349;SDS011;23231;52.358;4.926;2023-11-19T00:45:50;31.00;;;4.88;;
37349;SDS011;23231;52.358;4.926;2023-11-19T00:50:50;30.05;;;4.50;;
37349;SDS011;23231;52.358;4.926;2023-11-19T00:55:51;29.42;;;5.45;;
37349;SDS011;23231;52.358;4.926;2023-11-19T01:00:51;32.80;;;5.32;;
37349;SDS011;23231;52.358;4.926;2023-11-19T01:05:52;32.72;;;6.05;;
37349;SDS011;23231;52.358;4.926;2023-11-19T01:10:52;31.23;;;5.28;;
37349;SDS011;23231;52.358;4.926;2023-11-19T01:15:53;29.50;;;5.50;;
37349;SDS011;23231;52.358;4.926;2023-11-19T01:20:53;33.38;;;5.45;;
37349;SDS011;23231;52.358;4.926;2023-11-19T01:25:53;34.17;;;6.15;;
37349;SDS011;23231;52.358;4.926;2023-11-19T01:30:54;30.02;;;5.57;;
37349;SDS011;23231;52.358;4.926;2023-11-19T01:35:54;36.15;;;5.28;;
37349;SDS011;23231;52.358;4.926;2023-11-19T01:40:56;39.50;;;6.70;;
37349;SDS011;23231;52.358;4.926;2023-11-19T01:45:57;35.72;;;6.15;;
37349;SDS011;23231;52.358;4.926;2023-11-19T01:50:57;35.80;;;5.57;;
37349;SDS011;23231;52.358;4.926;2023-11-19T01:55:58;33.75;;;6.15;;
37349;SDS011;23231;52.358;4.926;2023-11-19T02:00:59;31.23;;;5.22;;
37349;SDS011;23231;52.358;4.926;2023-11-19T02:05:59;42.15;;;7.28;;
37349;SDS011;23231;52.358;4.926;2023-11-19T02:11:00;35.47;;;5.65;;
37349;SDS011;23231;52.358;4.926;2023-11-19T02:16:02;35.78;;;5.97;;
37349;SDS011;23231;52.358;4.926;2023-11-19T02:21:03;36.40;;;5.97;;
37349;SDS011;23231;52.358;4.926;2023-11-19T02:26:15;47.55;;;6.10;;
37349;SDS011;23231;52.358;4.926;2023-11-19T02:31:18;37.30;;;6.18;;
37349;SDS011;23231;52.358;4.926;2023-11-19T02:36:19;40.75;;;7.05;;
37349;SDS011;23231;52.358;4.926;2023-11-19T02:41:19;37.70;;;5.68;;
37349;SDS011;23231;52.358;4.926;2023-11-19T02:46:20;37.47;;;6.65;;
37349;SDS011;23231;52.358;4.926;2023-11-19T02:51:20;42.85;;;7.13;;
37349;SDS011;23231;52.358;4.926;2023-11-19T02:56:20;30.17;;;5.03;;
37349;SDS011;23231;52.358;4.926;2023-11-19T03:01:28;38.97;;;6.80;;
37349;SDS011;23231;52.358;4.926;2023-11-19T03:06:33;39.95;;;7.68;;
37349;SDS011;23231;52.358;4.926;2023-11-19T03:11:34;43.60;;;7.53;;
37349;SDS011;23231;52.358;4.926;2023-11-19T03:16:34;33.63;;;6.63;;
37349;SDS011;23231;52.358;4.926;2023-11-19T03:21:35;37.47;;;6.13;;
37349;SDS011;23231;52.358;4.926;2023-11-19T03:26:36;38.67;;;5.93;;
37349;SDS011;23231;52.358;4.926;2023-11-19T03:31:41;40.47;;;6.65;;
37349;SDS011;23231;52.358;4.926;2023-11-19T03:36:42;43.20;;;6.77;;
37349;SDS011;23231;52.358;4.926;2023-11-19T03:41:45;41.20;;;6.25;;
37349;SDS011;23231;52.358;4.926;2023-11-19T03:46:48;39.03;;;6.53;;
37349;SDS011;23231;52.358;4.926;2023-11-19T03:51:48;35.50;;;6.10;;
37349;SDS011;23231;52.358;4.926;2023-11-19T03:56:48;39.53;;;7.40;;
37349;SDS011;23231;52.358;4.926;2023-11-19T04:01:49;37.40;;;7.60;;
37349;SDS011;23231;52.358;4.926;2023-11-19T04:06:49;37.08;;;5.63;;
37349;SDS011;23231;52.358;4.926;2023-11-19T04:11:50;33.38;;;5.68;;
37349;SDS011;23231;52.358;4.926;2023-11-19T04:16:50;33.67;;;6.68;;
37349;SDS011;23231;52.358;4.926;2023-11-19T04:21:51;35.08;;;5.90;;
37349;SDS011;23231;52.358;4.926;2023-11-19T04:26:52;39.97;;;5.78;;
37349;SDS011;23231;52.358;4.926;2023-11-19T04:31:53;47.42;;;6.97;;
37349;SDS011;23231;52.358;4.926;2023-11-19T04:36:54;35.63;;;6.65;;
37349;SDS011;23231;52.358;4.926;2023-11-19T04:41:54;41.45;;;6.13;;
37349;SDS011;23231;52.358;4.926;2023-11-19T04:46:56;36.30;;;5.70;;
37349;SDS011;23231;52.358;4.926;2023-11-19T04:52:07;39.45;;;6.15;;
37349;SDS011;23231;52.358;4.926;2023-11-19T04:57:16;32.38;;;6.32;;
37349;SDS011;23231;52.358;4.926;2023-11-19T05:02:27;27.17;;;5.90;;
37349;SDS011;23231;52.358;4.926;2023-11-19T05:07:35;39.90;;;6.75;;
37349;SDS011;23231;52.358;4.926;2023-11-19T05:12:49;32.63;;;5.32;;
37349;SDS011;23231;52.358;4.926;2023-11-19T05:17:56;38.40;;;5.50;;
37349;SDS011;23231;52.358;4.926;2023-11-19T05:23:08;28.00;;;5.10;;
37349;SDS011;23231;52.358;4.926;2023-11-19T05:28:15;32.58;;;5.40;;
37349;SDS011;23231;52.358;4.926;2023-11-19T05:33:21;39.75;;;5.50;;
37349;SDS011;23231;52.358;4.926;2023-11-19T05:38:27;33.75;;;5.88;;
37349;SDS011;23231;52.358;4.926;2023-11-19T05:43:32;38.20;;;6.10;;
37349;SDS011;23231;52.358;4.926;2023-11-19T05:48:35;27.45;;;5.63;;
37349;SDS011;23231;52.358;4.926;2023-11-19T05:53:48;38.20;;;5.13;;
37349;SDS011;23231;52.358;4.926;2023-11-19T05:58:57;33.97;;;5.78;;
37349;SDS011;23231;52.358;4.926;2023-11-19T06:04:18;32.03;;;5.10;;
37349;SDS011;23231;52.358;4.926;2023-11-19T06:09:26;31.73;;;5.20;;
37349;SDS011;23231;52.358;4.926;2023-11-19T06:14:35;34.58;;;5.65;;
37349;SDS011;23231;52.358;4.926;2023-11-19T06:19:41;33.05;;;5.68;;
37349;SDS011;23231;52.358;4.926;2023-11-19T06:24:51;35.90;;;5.10;;
37349;SDS011;23231;52.358;4.926;2023-11-19T06:30:02;34.33;;;5.65;;
37349;SDS011;23231;52.358;4.926;2023-11-19T06:35:11;36.67;;;5.90;;
37349;SDS011;23231;52.358;4.926;2023-11-19T06:40:13;31.55;;;5.78;;
37349;SDS011;23231;52.358;4.926;2023-11-19T06:45:19;29.60;;;5.45;;
37349;SDS011;23231;52.358;4.926;2023-11-19T06:50:24;32.05;;;5.32;;
37349;SDS011;23231;52.358;4.926;2023-11-19T06:55:32;35.88;;;7.35;;
37349;SDS011;23231;52.358;4.926;2023-11-19T07:00:38;35.58;;;5.70;;
37349;SDS011;23231;52.358;4.926;2023-11-19T07:05:43;34.95;;;6.28;;
37349;SDS011;23231;52.358;4.926;2023-11-19T07:10:49;34.53;;;5.65;;
37349;SDS011;23231;52.358;4.926;2023-11-19T07:15:58;35.17;;;6.00;;
37349;SDS011;23231;52.358;4.926;2023-11-19T07:21:11;30.05;;;5.50;;
37349;SDS011;23231;52.358;4.926;2023-11-19T07:26:12;37.47;;;5.55;;
37349;SDS011;23231;52.358;4.926;2023-11-19T07:31:24;29.77;;;5.72;;
37349;SDS011;23231;52.358;4.926;2023-11-19T07:36:30;24.92;;;5.03;;
37349;SDS011;23231;52.358;4.926;2023-11-19T07:41:40;31.75;;;5.03;;
37349;SDS011;23231;52.358;4.926;2023-11-19T07:46:49;29.00;;;5.57;;
37349;SDS011;23231;52.358;4.926;2023-11-19T07:51:59;32.95;;;5.05;;
37349;SDS011;23231;52.358;4.926;2023-11-19T07:57:09;35.47;;;5.28;;
37349;SDS011;23231;52.358;4.926;2023-11-19T08:02:15;23.02;;;4.72;;
37349;SDS011;23231;52.358;4.926;2023-11-19T08:07:21;32.22;;;5.10;;
37349;SDS011;23231;52.358;4.926;2023-11-19T08:12:28;36.53;;;4.93;;
37349;SDS011;23231;52.358;4.926;2023-11-19T08:17:33;32.28;;;5.43;;
37349;SDS011;23231;52.358;4.926;2023-11-19T08:22:46;33.42;;;4.90;;
37349;SDS011;23231;52.358;4.926;2023-11-19T08:27:55;27.52;;;4.93;;
37349;SDS011;23231;52.358;4.926;2023-11-19T08:32:57;30.30;;;4.75;;
37349;SDS011;23231;52.358;4.926;2023-11-19T08:38:03;36.92;;;4.57;;
37349;SDS011;23231;52.358;4.926;2023-11-19T08:43:07;31.50;;;5.28;;
37349;SDS011;23231;52.358;4.926;2023-11-19T08:48:09;28.70;;;4.90;;
37349;SDS011;23231;52.358;4.926;2023-11-19T08:53:12;28.55;;;4.75;;
37349;SDS011;23231;52.358;4.926;2023-11-19T08:58:17;30.17;;;5.20;;
37349;SDS011;23231;52.358;4.926;2023-11-19T09:03:21;22.55;;;4.20;;
37349;SDS011;23231;52.358;4.926;2023-11-19T09:08:46;31.83;;;6.78;;
37349;SDS011;23231;52.358;4.926;2023-11-19T09:13:50;28.70;;;5.15;;
37349;SDS011;23231;52.358;4.926;2023-11-19T09:19:00;31.08;;;5.35;;
37349;SDS011;23231;52.358;4.926;2023-11-19T09:24:10;34.95;;;5.35;;
37349;SDS011;23231;52.358;4.926;2023-11-19T09:29:14;39.97;;;5.85;;
37349;SDS011;23231;52.358;4.926;2023-11-19T09:34:20;30.30;;;5.20;;
37349;SDS011;23231;52.358;4.926;2023-11-19T09:39:20;34.63;;;5.63;;
37349;SDS011;23231;52.358;4.926;2023-11-19T09:44:21;27.50;;;5.18;;
37349;SDS011;23231;52.358;4.926;2023-11-19T09:49:24;32.40;;;6.45;;
37349;SDS011;23231;52.358;4.926;2023-11-19T09:54:36;27.80;;;5.18;;
37349;SDS011;23231;52.358;4.926;2023-11-19T09:59:37;32.60;;;5.18;;
37349;SDS011;23231;52.358;4.926;2023-11-19T10:04:45;32.67;;;5.38;;
37349;SDS011;23231;52.358;4.926;2023-11-19T10:09:56;36.42;;;5.07;;
37349;SDS011;23231;52.358;4.926;2023-11-19T10:15:07;27.52;;;4.78;;
37349;SDS011;23231;52.358;4.926;2023-11-19T10:20:35;30.35;;;5.45;;
37349;SDS011;23231;52.358;4.926;2023-11-19T10:25:46;28.77;;;4.53;;
37349;SDS011;23231;52.358;4.926;2023-11-19T10:30:48;26.15;;;5.55;;
37349;SDS011;23231;52.358;4.926;2023-11-19T10:35:52;28.85;;;4.50;;
37349;SDS011;23231;52.358;4.926;2023-11-19T10:40:55;34.22;;;5.50;;
37349;SDS011;23231;52.358;4.926;2023-11-19T10:46:09;26.60;;;4.40;;
37349;SDS011;23231;52.358;4.926;2023-11-19T10:51:16;33.47;;;5.80;;
37349;SDS011;23231;52.358;4.926;2023-11-19T10:56:23;28.23;;;5.18;;
37349;SDS011;23231;52.358;4.926;2023-11-19T11:06:35;33.42;;;4.85;;
37349;SDS011;23231;52.358;4.926;2023-11-19T11:11:38;27.70;;;4.65;;
37349;SDS011;23231;52.358;4.926;2023-11-19T11:16:46;27.58;;;4.72;;
37349;SDS011;23231;52.358;4.926;2023-11-19T11:21:59;27.73;;;4.68;;
37349;SDS011;23231;52.358;4.926;2023-11-19T11:38:08;22.80;;;4.22;;
37349;SDS011;23231;52.358;4.926;2023-11-19T11:43:43;24.13;;;4.38;;
37349;SDS011;23231;52.358;4.926;2023-11-19T11:48:45;28.65;;;4.88;;
37349;SDS011;23231;52.358;4.926;2023-11-19T11:53:58;25.10;;;4.45;;
37349;SDS011;23231;52.358;4.926;2023-11-19T11:59:07;30.73;;;5.07;;
37349;SDS011;23231;52.358;4.926;2023-11-19T12:04:18;24.33;;;4.07;;
37349;SDS011;23231;52.358;4.926;2023-11-19T12:09:20;23.48;;;4.78;;
37349;SDS011;23231;52.358;4.926;2023-11-19T12:14:55;23.08;;;4.20;;
37349;SDS011;23231;52.358;4.926;2023-11-19T12:20:02;24.75;;;4.38;;
37349;SDS011;23231;52.358;4.926;2023-11-19T12:25:13;23.85;;;4.15;;
37349;SDS011;23231;52.358;4.926;2023-11-19T12:30:27;30.25;;;4.55;;
37349;SDS011;23231;52.358;4.926;2023-11-19T12:35:29;34.42;;;5.28;;
37349;SDS011;23231;52.358;4.926;2023-11-19T12:40:31;30.48;;;4.88;;
37349;SDS011;23231;52.358;4.926;2023-11-19T12:45:36;26.92;;;4.25;;
37349;SDS011;23231;52.358;4.926;2023-11-19T12:50:56;32.97;;;5.25;;
37349;SDS011;23231;52.358;4.926;2023-11-19T12:56:09;25.70;;;4.25;;
37349;SDS011;23231;52.358;4.926;2023-11-19T13:01:10;32.95;;;4.45;;
37349;SDS011;23231;52.358;4.926;2023-11-19T13:06:16;25.73;;;4.60;;
37349;SDS011;23231;52.358;4.926;2023-11-19T13:11:34;30.55;;;4.72;;
37349;SDS011;23231;52.358;4.926;2023-11-19T13:16:45;26.30;;;4.68;;
37349;SDS011;23231;52.358;4.926;2023-11-19T13:22:15;27.65;;;4.68;;
37349;SDS011;23231;52.358;4.926;2023-11-19T13:27:20;30.00;;;5.32;;
37349;SDS011;23231;52.358;4.926;2023-11-19T13:32:26;23.88;;;4.40;;
37349;SDS011;23231;52.358;4.926;2023-11-19T13:37:27;27.63;;;4.07;;
37349;SDS011;23231;52.358;4.926;2023-11-19T13:42:32;23.83;;;3.70;;
37349;SDS011;23231;52.358;4.926;2023-11-19T13:47:42;29.00;;;4.70;;
37349;SDS011;23231;52.358;4.926;2023-11-19T13:52:59;28.42;;;4.70;;
37349;SDS011;23231;52.358;4.926;2023-11-19T13:57:59;26.77;;;5.07;;
37349;SDS011;23231;52.358;4.926;2023-11-19T14:03:00;24.48;;;4.85;;
37349;SDS011;23231;52.358;4.926;2023-11-19T14:08:00;28.83;;;4.65;;
37349;SDS011;23231;52.358;4.926;2023-11-19T14:13:01;31.67;;;5.43;;
37349;SDS011;23231;52.358;4.926;2023-11-19T14:18:02;31.55;;;4.63;;
37349;SDS011;23231;52.358;4.926;2023-11-19T14:23:03;26.95;;;4.93;;
37349;SDS011;23231;52.358;4.926;2023-11-19T14:28:04;29.70;;;4.63;;
37349;SDS011;23231;52.358;4.926;2023-11-19T14:33:08;32.83;;;5.50;;
37349;SDS011;23231;52.358;4.926;2023-11-19T14:38:10;28.58;;;4.45;;
37349;SDS011;23231;52.358;4.926;2023-11-19T14:43:16;34.03;;;4.75;;
37349;SDS011;23231;52.358;4.926;2023-11-19T14:48:21;36.30;;;4.95;;
37349;SDS011;23231;52.358;4.926;2023-11-19T14:53:24;23.45;;;3.95;;
37349;SDS011;23231;52.358;4.926;2023-11-19T14:58:25;27.73;;;4.18;;
37349;SDS011;23231;52.358;4.926;2023-11-19T15:03:26;30.48;;;4.53;;
37349;SDS011;23231;52.358;4.926;2023-11-19T15:08:26;22.52;;;4.35;;
37349;SDS011;23231;52.358;4.926;2023-11-19T15:13:30;29.65;;;5.22;;
37349;SDS011;23231;52.358;4.926;2023-11-19T15:18:36;24.15;;;4.53;;
37349;SDS011;23231;52.358;4.926;2023-11-19T15:23:42;28.05;;;4.60;;
37349;SDS011;23231;52.358;4.926;2023-11-19T15:28:43;26.30;;;4.80;;
37349;SDS011;23231;52.358;4.926;2023-11-19T15:33:46;29.15;;;4.80;;
37349;SDS011;23231;52.358;4.926;2023-11-19T15:38:56;25.13;;;4.68;;
37349;SDS011;23231;52.358;4.926;2023-11-19T15:44:04;26.08;;;4.57;;
37349;SDS011;23231;52.358;4.926;2023-11-19T15:49:04;21.10;;;4.65;;
37349;SDS011;23231;52.358;4.926;2023-11-19T15:54:07;25.33;;;4.32;;
37349;SDS011;23231;52.358;4.926;2023-11-19T15:59:10;31.17;;;4.97;;
37349;SDS011;23231;52.358;4.926;2023-11-19T16:04:19;33.08;;;4.85;;
37349;SDS011;23231;52.358;4.926;2023-11-19T16:09:21;32.30;;;5.50;;
37349;SDS011;23231;52.358;4.926;2023-11-19T16:14:23;31.98;;;5.25;;
37349;SDS011;23231;52.358;4.926;2023-11-19T16:19:31;27.38;;;5.57;;
37349;SDS011;23231;52.358;4.926;2023-11-19T16:24:36;33.70;;;5.65;;
37349;SDS011;23231;52.358;4.926;2023-11-19T16:29:37;38.22;;;5.93;;
37349;SDS011;23231;52.358;4.926;2023-11-19T16:34:39;29.67;;;5.10;;
37349;SDS011;23231;52.358;4.926;2023-11-19T16:39:42;31.23;;;5.40;;
37349;SDS011;23231;52.358;4.926;2023-11-19T16:44:44;33.00;;;5.38;;
37349;SDS011;23231;52.358;4.926;2023-11-19T16:49:44;29.40;;;4.78;;
37349;SDS011;23231;52.358;4.926;2023-11-19T16:54:51;28.55;;;5.20;;
37349;SDS011;23231;52.358;4.926;2023-11-19T16:59:55;22.65;;;6.18;;
37349;SDS011;23231;52.358;4.926;2023-11-19T17:04:57;31.70;;;4.95;;
37349;SDS011;23231;52.358;4.926;2023-11-19T17:10:05;36.95;;;5.65;;
37349;SDS011;23231;52.358;4.926;2023-11-19T17:15:13;34.60;;;5.55;;
37349;SDS011;23231;52.358;4.926;2023-11-19T17:20:16;28.45;;;4.75;;
37349;SDS011;23231;52.358;4.926;2023-11-19T17:25:25;47.78;;;6.20;;
37349;SDS011;23231;52.358;4.926;2023-11-19T17:30:34;46.92;;;6.57;;
37349;SDS011;23231;52.358;4.926;2023-11-19T17:35:43;31.77;;;5.25;;
37349;SDS011;23231;52.358;4.926;2023-11-19T17:40:47;34.20;;;5.78;;
37349;SDS011;23231;52.358;4.926;2023-11-19T17:45:57;39.65;;;6.70;;
37349;SDS011;23231;52.358;4.926;2023-11-19T17:51:13;35.58;;;5.57;;
37349;SDS011;23231;52.358;4.926;2023-11-19T17:56:23;44.47;;;6.13;;
37349;SDS011;23231;52.358;4.926;2023-11-19T18:01:27;39.17;;;5.75;;
37349;SDS011;23231;52.358;4.926;2023-11-19T18:06:31;38.97;;;6.90;;
37349;SDS011;23231;52.358;4.926;2023-11-19T18:11:37;35.17;;;5.93;;
37349;SDS011;23231;52.358;4.926;2023-11-19T18:16:45;32.28;;;5.82;;
37349;SDS011;23231;52.358;4.926;2023-11-19T18:21:46;34.38;;;5.72;;
37349;SDS011;23231;52.358;4.926;2023-11-19T18:26:46;38.50;;;6.07;;
37349;SDS011;23231;52.358;4.926;2023-11-19T18:31:51;41.55;;;6.70;;
37349;SDS011;23231;52.358;4.926;2023-11-19T18:37:03;41.17;;;6.00;;
37349;SDS011;23231;52.358;4.926;2023-11-19T18:42:05;38.05;;;5.20;;
37349;SDS011;23231;52.358;4.926;2023-11-19T18:47:07;36.72;;;5.88;;
37349;SDS011;23231;52.358;4.926;2023-11-19T18:52:14;38.65;;;5.25;;
37349;SDS011;23231;52.358;4.926;2023-11-19T18:57:19;41.63;;;7.20;;
37349;SDS011;23231;52.358;4.926;2023-11-19T19:02:22;38.78;;;6.03;;
37349;SDS011;23231;52.358;4.926;2023-11-19T19:07:30;26.75;;;4.55;;
37349;SDS011;23231;52.358;4.926;2023-11-19T19:12:33;38.28;;;5.65;;
37349;SDS011;23231;52.358;4.926;2023-11-19T19:17:35;33.60;;;5.05;;
37349;SDS011;23231;52.358;4.926;2023-11-19T19:22:39;39.92;;;5.28;;
37349;SDS011;23231;52.358;4.926;2023-11-19T19:27:42;37.10;;;4.85;;
37349;SDS011;23231;52.358;4.926;2023-11-19T19:32:45;24.60;;;4.63;;
37349;SDS011;23231;52.358;4.926;2023-11-19T19:37:46;28.17;;;5.28;;
37349;SDS011;23231;52.358;4.926;2023-11-19T19:42:48;22.73;;;3.60;;
37349;SDS011;23231;52.358;4.926;2023-11-19T19:47:51;24.00;;;5.28;;
37349;SDS011;23231;52.358;4.926;2023-11-19T19:53:01;28.50;;;4.53;;
37349;SDS011;23231;52.358;4.926;2023-11-19T19:58:04;29.35;;;4.30;;
37349;SDS011;23231;52.358;4.926;2023-11-19T20:03:07;29.65;;;4.78;;
37349;SDS011;23231;52.358;4.926;2023-11-19T20:08:09;26.23;;;4.80;;
37349;SDS011;23231;52.358;4.926;2023-11-19T20:13:12;30.27;;;4.75;;
37349;SDS011;23231;52.358;4.926;2023-11-19T20:18:15;29.23;;;4.78;;
37349;SDS011;23231;52.358;4.926;2023-11-19T20:23:17;25.33;;;4.18;;
37349;SDS011;23231;52.358;4.926;2023-11-19T20:28:18;23.80;;;4.22;;
37349;SDS011;23231;52.358;4.926;2023-11-19T20:33:20;21.10;;;3.65;;
37349;SDS011;23231;52.358;4.926;2023-11-19T20:38:21;28.48;;;4.90;;
37349;SDS011;23231;52.358;4.926;2023-11-19T20:43:21;22.80;;;4.40;;
37349;SDS011;23231;52.358;4.926;2023-11-19T20:48:24;22.70;;;3.55;;
37349;SDS011;23231;52.358;4.926;2023-11-19T20:53:25;20.05;;;4.03;;
37349;SDS011;23231;52.358;4.926;2023-11-19T20:58:25;26.50;;;4.30;;
37349;SDS011;23231;52.358;4.926;2023-11-19T21:03:29;24.17;;;4.35;;
37349;SDS011;23231;52.358;4.926;2023-11-19T21:08:31;21.40;;;3.33;;
37349;SDS011;23231;52.358;4.926;2023-11-19T21:13:37;23.55;;;4.30;;
37349;SDS011;23231;52.358;4.926;2023-11-19T21:18:41;23.25;;;3.58;;
37349;SDS011;23231;52.358;4.926;2023-11-19T21:23:41;22.67;;;3.60;;
37349;SDS011;23231;52.358;4.926;2023-11-19T21:28:42;23.40;;;3.90;;
37349;SDS011;23231;52.358;4.926;2023-11-19T21:33:43;17.63;;;3.05;;
37349;SDS011;23231;52.358;4.926;2023-11-19T21:38:46;27.30;;;3.70;;
37349;SDS011;23231;52.358;4.926;2023-11-19T21:43:47;19.17;;;3.00;;
37349;SDS011;23231;52.358;4.926;2023-11-19T21:48:49;15.48;;;3.20;;
37349;SDS011;23231;52.358;4.926;2023-11-19T21:53:51;18.33;;;3.50;;
37349;SDS011;23231;52.358;4.926;2023-11-19T21:58:56;23.90;;;3.70;;
37349;SDS011;23231;52.358;4.926;2023-11-19T22:03:56;23.40;;;3.50;;
37349;SDS011;23231;52.358;4.926;2023-11-19T22:09:02;18.77;;;3.00;;
37349;SDS011;23231;52.358;4.926;2023-11-19T22:14:16;16.05;;;3.35;;
37349;SDS011;23231;52.358;4.926;2023-11-19T22:19:25;18.95;;;3.22;;
37349;SDS011;23231;52.358;4.926;2023-11-19T22:29:37;16.33;;;3.15;;
37349;SDS011;23231;52.358;4.926;2023-11-19T22:34:40;17.60;;;3.20;;
37349;SDS011;23231;52.358;4.926;2023-11-19T22:39:43;21.00;;;3.47;;
37349;SDS011;23231;52.358;4.926;2023-11-19T22:44:44;18.65;;;3.60;;
37349;SDS011;23231;52.358;4.926;2023-11-19T22:49:48;26.27;;;3.45;;
37349;SDS011;23231;52.358;4.926;2023-11-19T22:54:48;28.75;;;5.10;;
37349;SDS011;23231;52.358;4.926;2023-11-19T22:59:49;30.30;;;4.13;;
37349;SDS011;23231;52.358;4.926;2023-11-19T23:04:51;22.77;;;5.00;;
37349;SDS011;23231;52.358;4.926;2023-11-19T23:09:55;22.17;;;3.45;;
37349;SDS011;23231;52.358;4.926;2023-11-19T23:14:58;24.43;;;4.60;;
37349;SDS011;23231;52.358;4.926;2023-11-19T23:20:04;22.33;;;3.78;;
37349;SDS011;23231;52.358;4.926;2023-11-19T23:25:11;25.08;;;4.05;;
37349;SDS011;23231;52.358;4.926;2023-11-19T23:30:16;21.30;;;4.28;;
37349;SDS011;23231;52.358;4.926;2023-11-19T23:35:21;23.00;;;3.75;;
37349;SDS011;23231;52.358;4.926;2023-11-19T23:40:24;23.10;;;3.78;;
37349;SDS011;23231;52.358;4.926;2023-11-19T23:45:31;19.00;;;3.45;;
37349;SDS011;23231;52.358;4.926;2023-11-19T23:50:41;26.08;;;4.10;;
37349;SDS011;23231;52.358;4.926;2023-11-19T23:55:43;25.42;;;4.47;;
